Time;durP1;ratioP1;P1;durP2;ratioP2;P2;SDS_P1;SDS_P2;PMS_P1;PMS_P2;Temp;Humidity;BMP_temperature;BMP_pressure;BME280_temperature;BME280_humidity;BME280_pressure;Samples;Min_cycle;Max_cycle;Signal;HPM_P1;HPM_P2
2021/06/10 00:05:54;;;;;;;14.18;6.58;;;;;;;14.04;58.91;98864.66;512958;1088;103467;-44
2021/06/10 00:16:00;;;;;;;12.97;6.23;;;;;;;13.91;59.18;98859.69;512753;1089;103502;-42
2021/06/10 00:26:07;;;;;;;12.90;6.95;;;;;;;13.72;59.74;98855.70;512892;1088;103128;-42
2021/06/10 00:36:15;;;;;;;13.13;6.97;;;;;;;13.58;59.34;98854.45;512899;1090;103131;-44
2021/06/10 00:46:22;;;;;;;10.10;6.43;;;;;;;13.50;59.85;98843.19;512839;1089;103479;-43
2021/06/10 00:56:30;;;;;;;14.77;8.87;;;;;;;13.46;60.76;98846.55;512888;1088;103119;-45
2021/06/10 01:06:35;;;;;;;15.07;8.50;;;;;;;13.32;60.80;98847.94;512797;1088;103647;-44
2021/06/10 01:16:40;;;;;;;10.70;7.00;;;;;;;13.23;61.25;98849.37;513854;1088;103495;-43
2021/06/10 01:26:52;;;;;;;9.55;6.55;;;;;;;13.24;61.76;98850.98;512970;1092;103028;-42
2021/06/10 01:37:01;;;;;;;10.50;8.07;;;;;;;13.19;62.22;98851.70;513046;1089;103047;-42
2021/06/10 01:47:10;;;;;;;14.30;8.33;;;;;;;13.00;62.19;98851.09;512951;1088;103162;-43
2021/06/10 01:57:17;;;;;;;;;;;;;;;12.81;62.79;98845.22;513440;1088;103122;-43
2021/06/10 02:07:25;;;;;;;14.20;8.97;;;;;;;12.53;62.31;98839.90;512809;1088;103162;-45
2021/06/10 02:17:31;;;;;;;15.07;9.30;;;;;;;12.50;63.01;98841.18;512751;1093;103174;-44
2021/06/10 02:27:39;;;;;;;9.93;7.53;;;;;;;12.57;63.49;98841.06;512715;1089;103101;-44
2021/06/10 02:37:46;;;;;;;9.97;8.07;;;;;;;12.62;63.83;98848.30;512714;1088;103412;-44
2021/06/10 02:47:57;;;;;;;16.30;9.97;;;;;;;12.64;63.70;98856.83;512753;1088;103201;-45
2021/06/10 02:58:05;;;;;;;15.65;9.65;;;;;;;12.64;63.83;98854.98;513012;1088;103124;-44
2021/06/10 03:08:14;;;;;;;13.88;9.10;;;;;;;12.93;63.81;98868.22;513045;1088;103425;-44
2021/06/10 03:18:23;;;;;;;12.17;8.30;;;;;;;15.77;62.49;98852.25;512703;1089;103121;-45
2021/06/10 03:28:32;;;;;;;10.20;8.53;;;;;;;17.90;60.15;98857.22;512899;1089;103399;-45
2021/06/10 03:38:41;;;;;;;11.65;8.00;;;;;;;19.55;58.14;98855.77;512682;1088;103104;-43
2021/06/10 03:48:49;;;;;;;9.93;7.07;;;;;;;21.32;56.17;98854.63;512964;1090;103122;-43
2021/06/10 03:58:54;;;;;;;;;;;;;;;22.62;53.91;98858.90;513038;1090;103137;-43
2021/06/10 04:09:01;;;;;;;13.05;7.80;;;;;;;24.06;52.11;98863.23;512903;1088;103193;-43
2021/06/10 04:29:31;;;;;;;11.63;7.47;;;;;;;25.48;48.36;98877.09;512782;1090;103079;-44
2021/06/10 04:39:38;;;;;;;11.93;6.93;;;;;;;25.94;47.58;98879.86;513039;1088;103208;-44
2021/06/10 04:49:45;;;;;;;9.70;6.20;;;;;;;26.31;45.89;98877.48;513169;1089;103102;-44
2021/06/10 04:59:50;;;;;;;;;;;;;;;25.70;44.86;98861.47;512919;1089;103096;-43
2021/06/10 05:09:57;;;;;;;8.47;6.20;;;;;;;25.56;45.04;98855.44;512768;1090;103105;-44
2021/06/10 05:20:02;;;;;;;16.97;6.20;;;;;;;25.24;43.58;98866.78;513058;1089;103105;-44
2021/06/10 05:30:13;;;;;;;9.87;6.73;;;;;;;25.30;44.88;98860.88;512800;1092;103509;-44
2021/06/10 05:40:21;;;;;;;10.70;4.53;;;;;;;24.50;43.90;98864.98;513577;1090;103427;-44
2021/06/10 05:50:28;;;;;;;10.23;5.13;;;;;;;24.47;42.86;98863.70;512971;1092;103192;-44
2021/06/10 06:00:40;;;;;;;12.90;5.53;;;;;;;23.72;42.86;98855.80;513048;1092;103553;-43
2021/06/10 06:10:52;;;;;;;8.37;4.77;;;;;;;24.31;42.72;98865.25;512756;1092;103116;-44
2021/06/10 06:20:59;;;;;;;8.00;4.30;;;;;;;24.60;43.27;98866.58;513130;1091;103104;-43
2021/06/10 06:31:06;;;;;;;5.40;4.73;;;;;;;24.97;42.06;98870.59;512976;1092;103482;-45
2021/06/10 06:41:14;;;;;;;15.00;4.17;;;;;;;24.85;41.62;98875.86;513214;1092;103406;-44
2021/06/10 06:51:22;;;;;;;7.10;3.77;;;;;;;25.48;40.67;98877.89;512991;1091;103588;-44
2021/06/10 07:01:29;;;;;;;9.03;3.50;;;;;;;25.56;40.78;98876.30;513025;1092;103188;-43
2021/06/10 07:11:38;;;;;;;6.00;2.80;;;;;;;25.83;40.54;98877.84;513091;1092;103104;-44
2021/06/10 07:21:43;;;;;;;7.37;2.73;;;;;;;25.62;40.13;98880.42;512955;1091;103480;-43
2021/06/10 07:31:50;;;;;;;13.23;3.50;;;;;;;24.72;40.60;98886.48;513006;1090;103106;-44
2021/06/10 07:41:58;;;;;;;18.00;3.67;;;;;;;25.26;40.71;98894.32;513067;1092;103111;-45
2021/06/10 07:52:05;;;;;;;5.90;2.60;;;;;;;25.73;40.72;98889.02;513083;1092;103489;-44
2021/06/10 08:02:12;;;;;;;11.88;3.65;;;;;;;26.01;40.00;98887.48;512846;1091;103274;-42
2021/06/10 08:22:42;;;;;;;5.50;2.33;;;;;;;25.89;38.19;98895.51;512883;1092;103187;-42
2021/06/10 08:32:49;;;;;;;6.37;2.53;;;;;;;26.09;36.86;98894.00;512720;1092;103119;-44
2021/06/10 08:42:58;;;;;;;4.65;2.70;;;;;;;25.88;36.74;98904.75;512899;1091;103415;-44
2021/06/10 08:53:07;;;;;;;6.50;2.70;;;;;;;26.19;36.48;98899.05;512886;1092;103524;-43
2021/06/10 09:03:21;;;;;;;4.30;2.73;;;;;;;26.64;35.90;98903.95;512978;1092;103485;-44
2021/06/10 09:13:38;;;;;;;3.07;2.87;;;;;;;26.54;35.70;98888.86;512991;1092;103185;-41
2021/06/10 09:23:45;;;;;;;10.23;2.80;;;;;;;26.73;35.98;98891.91;512998;1092;103131;-45
2021/06/10 09:33:53;;;;;;;4.20;2.53;;;;;;;26.79;34.43;98895.23;512935;1092;103195;-43
2021/06/10 09:44:00;;;;;;;36.77;4.50;;;;;;;25.10;36.39;98926.50;512727;1092;103130;-43
2021/06/10 09:54:08;;;;;;;5.40;3.30;;;;;;;22.99;41.86;98944.14;512837;1092;103128;-43
2021/06/10 10:04:15;;;;;;;7.35;3.20;;;;;;;21.77;44.80;98946.45;512797;1092;103148;-42
2021/06/10 10:14:22;;;;;;;7.43;4.00;;;;;;;21.74;45.84;98937.05;512705;1092;103142;-43
2021/06/10 10:24:30;;;;;;;7.30;5.40;;;;;;;21.53;47.76;98945.74;512855;1093;103125;-42
2021/06/10 10:34:39;;;;;;;7.63;7.00;;;;;;;22.52;48.19;98943.47;512770;1092;103134;-42
2021/06/10 10:44:46;;;;;;;9.83;5.37;;;;;;;24.12;47.42;98932.22;512911;1092;103131;-43
2021/06/10 10:54:54;;;;;;;14.18;3.23;;;;;;;24.00;44.71;98932.02;513069;1092;103505;-42
2021/06/10 11:05:05;;;;;;;3.75;2.65;;;;;;;23.30;42.77;98943.44;512958;1091;103079;-41
2021/06/10 11:15:46;;;;;;;5.17;3.27;;;;;;;22.52;44.31;98935.38;512855;1091;103166;-40
2021/06/10 11:25:52;;;;;;;4.10;2.03;;;;;;;21.76;46.44;98924.09;513091;1092;103122;-40
2021/06/10 11:36:04;;;;;;;4.10;3.00;;;;;;;21.29;47.50;98910.88;513055;1091;103119;-43
2021/06/10 11:46:11;;;;;;;4.30;2.20;;;;;;;21.24;48.43;98900.20;513076;1092;103116;-42
2021/06/10 11:56:25;;;;;;;3.57;2.33;;;;;;;21.55;48.49;98887.08;513127;1092;103443;-43
2021/06/10 12:06:33;;;;;;;4.83;1.77;;;;;;;22.08;47.76;98884.80;512888;1091;103562;-41
2021/06/10 12:16:39;;;;;;;1.93;1.70;;;;;;;22.53;47.46;98858.03;512848;1092;103403;-40
2021/06/10 12:26:47;;;;;;;4.15;2.08;;;;;;;22.63;45.83;98847.02;512721;1092;103380;-41
2021/06/10 12:36:54;;;;;;;3.70;2.00;;;;;;;22.24;45.76;98834.10;512909;1092;103606;-44
2021/06/10 12:47:05;;;;;;;1.58;1.48;;;;;;;22.13;46.05;98832.73;512825;1091;103617;-41
2021/06/10 12:57:18;;;;;;;2.10;1.37;;;;;;;22.49;45.99;98811.23;512933;1092;103448;-42
2021/06/10 13:07:27;;;;;;;1.80;1.70;;;;;;;23.19;45.51;98798.02;512796;1091;104097;-42
2021/06/10 13:17:51;;;;;;;2.95;1.70;;;;;;;23.27;43.93;98788.38;512743;1092;103106;-44
2021/06/10 13:28:09;;;;;;;2.50;2.33;;;;;;;22.84;43.50;98785.39;512845;1092;103517;-42
2021/06/10 13:38:15;;;;;;;2.30;2.10;;;;;;;22.51;44.23;98777.50;512879;1091;103106;-42
2021/06/10 13:48:23;;;;;;;2.13;1.13;;;;;;;22.61;44.26;98774.55;512786;1092;103143;-41
2021/06/10 13:58:31;;;;;;;1.30;1.20;;;;;;;22.95;43.26;98757.88;512737;1092;103632;-41
2021/06/10 14:08:41;;;;;;;1.05;1.05;;;;;;;23.17;42.75;98758.94;512730;1093;103105;-40
2021/06/10 14:18:50;;;;;;;6.03;1.70;;;;;;;23.35;43.00;98746.34;512905;1092;103486;-42
2021/06/10 14:29:04;;;;;;;1.47;1.30;;;;;;;23.21;43.07;98755.34;512730;1092;103457;-41
2021/06/10 14:39:12;;;;;;;2.70;1.30;;;;;;;23.39;43.15;98747.31;513075;1091;103115;-42
2021/06/10 14:49:20;;;;;;;1.47;1.40;;;;;;;23.54;43.39;98728.81;512785;1092;103105;-43
2021/06/10 14:59:28;;;;;;;3.23;2.27;;;;;;;23.49;42.99;98725.46;512922;1092;103119;-42
2021/06/10 15:09:35;;;;;;;2.63;1.87;;;;;;;23.56;43.07;98705.03;512940;1091;103102;-41
2021/06/10 15:19:42;;;;;;;28.53;3.33;;;;;;;23.39;42.30;98696.04;512788;1091;103064;-42
2021/06/10 15:29:49;;;;;;;1.85;1.50;;;;;;;23.35;42.38;98693.17;512664;1091;103496;-43
2021/06/10 15:39:57;;;;;;;3.50;1.65;;;;;;;23.38;42.30;98687.15;512619;1092;103207;-42
2021/06/10 15:50:03;;;;;;;3.95;2.20;;;;;;;23.26;41.49;98695.05;512888;1091;103122;-41
2021/06/10 16:00:13;;;;;;;2.03;1.93;;;;;;;23.24;41.73;98689.17;513232;1093;103105;-43
2021/06/10 16:10:21;;;;;;;1.60;1.50;;;;;;;23.05;40.00;98697.49;512798;1092;103460;-43
2021/06/10 16:20:30;;;;;;;3.27;1.70;;;;;;;22.96;40.69;98678.58;512948;1090;103428;-42
2021/06/10 16:30:38;;;;;;;2.40;2.20;;;;;;;22.81;40.79;98673.57;512822;1089;103100;-45
2021/06/10 16:40:45;;;;;;;2.60;1.63;;;;;;;22.76;41.52;98664.80;512835;1088;103103;-42
2021/06/10 16:50:52;;;;;;;5.03;2.33;;;;;;;22.52;42.15;98665.91;512913;1088;103118;-43
2021/06/10 17:01:08;;;;;;;2.40;2.20;;;;;;;22.43;42.53;98672.33;512784;1088;103434;-43
2021/06/10 17:11:16;;;;;;;4.85;2.50;;;;;;;22.18;42.69;98676.41;512861;1088;103507;-43
2021/06/10 17:21:23;;;;;;;8.40;3.00;;;;;;;22.05;43.79;98673.47;512880;1089;103105;-43
2021/06/10 17:31:30;;;;;;;6.30;2.80;;;;;;;22.12;43.78;98672.25;512841;1089;103127;-42
2021/06/10 17:41:38;;;;;;;5.47;2.37;;;;;;;21.97;44.30;98676.83;512979;1088;103143;-43
2021/06/10 17:51:46;;;;;;;40.33;4.88;;;;;;;21.74;44.84;98688.64;512724;1088;103119;-43
2021/06/10 18:01:57;;;;;;;9.27;3.60;;;;;;;21.41;44.84;98696.84;512983;1088;103095;-42
2021/06/10 18:12:04;;;;;;;13.10;3.70;;;;;;;21.18;45.69;98711.23;512780;1088;103123;-42
2021/06/10 18:22:12;;;;;;;7.07;4.00;;;;;;;20.97;46.64;98699.23;512938;1091;103127;-42
2021/06/10 18:32:19;;;;;;;11.33;4.40;;;;;;;20.74;47.03;98703.66;512760;1089;103047;-42
2021/06/10 18:42:24;;;;;;;5.20;4.53;;;;;;;20.36;47.92;98698.33;513000;1088;103063;-43
2021/06/10 18:52:31;;;;;;;8.20;5.93;;;;;;;19.78;48.86;98701.27;513040;1088;103415;-42
2021/06/10 19:02:39;;;;;;;7.95;4.95;;;;;;;19.28;49.57;98708.78;512692;1089;103122;-44
2021/06/10 19:12:46;;;;;;;9.60;4.93;;;;;;;18.91;50.39;98720.13;512871;1088;103047;-45
2021/06/10 19:22:55;;;;;;;12.37;6.10;;;;;;;18.45;51.33;98724.20;512811;1089;103585;-43
2021/06/10 19:33:03;;;;;;;6.40;4.95;;;;;;;18.14;51.87;98727.08;512844;1088;103467;-44
2021/06/10 19:43:10;;;;;;;8.77;5.33;;;;;;;17.99;53.03;98724.51;512864;1089;103451;-43
2021/06/10 19:53:19;;;;;;;16.13;6.37;;;;;;;17.79;53.74;98723.52;512790;1088;103077;-43
2021/06/10 20:03:25;;;;;;;;;;;;;;;17.55;54.49;98727.86;512940;1088;103240;-44
2021/06/10 20:13:33;;;;;;;12.43;4.97;;;;;;;17.17;54.81;98722.06;512923;1089;104278;-43
2021/06/10 20:23:40;;;;;;;12.00;5.95;;;;;;;16.73;55.20;98727.17;512839;1089;103128;-42
2021/06/10 20:33:47;;;;;;;6.87;4.27;;;;;;;16.53;55.76;98719.91;512966;1088;103131;-43
2021/06/10 20:43:54;;;;;;;8.50;4.85;;;;;;;16.51;56.42;98724.72;512813;1090;103130;-42
2021/06/10 20:54:01;;;;;;;6.25;5.55;;;;;;;16.24;56.81;98716.95;512809;1089;103128;-41
2021/06/10 21:04:09;;;;;;;9.93;5.67;;;;;;;16.04;57.29;98716.89;512790;1088;103501;-44
2021/06/10 21:24:38;;;;;;;6.03;5.33;;;;;;;15.78;57.94;98724.02;512628;1088;103169;-43
2021/06/10 21:34:46;;;;;;;5.93;5.33;;;;;;;15.86;58.33;98728.86;512826;1089;103629;-43
2021/06/10 21:44:54;;;;;;;7.70;5.90;;;;;;;15.82;58.06;98722.42;512863;1088;103239;-44
2021/06/10 21:55:03;;;;;;;10.40;7.07;;;;;;;15.70;58.75;98715.73;513038;1088;103278;-44
2021/06/10 22:05:13;;;;;;;10.38;6.63;;;;;;;15.53;59.11;98716.68;512886;1088;103185;-43
2021/06/10 22:15:20;;;;;;;8.43;5.90;;;;;;;15.47;59.30;98719.59;512840;1088;103276;-44
2021/06/10 22:25:28;;;;;;;9.23;7.20;;;;;;;15.42;59.53;98709.71;513151;1089;103470;-44
2021/06/10 22:35:36;;;;;;;12.23;7.30;;;;;;;15.33;59.71;98717.38;512853;1088;103188;-43
2021/06/10 22:45:44;;;;;;;9.37;7.63;;;;;;;15.20;59.97;98715.18;512825;1088;103119;-43
2021/06/10 22:55:54;;;;;;;10.50;6.73;;;;;;;15.01;60.16;98711.33;512910;1090;103105;-44
2021/06/10 23:06:01;;;;;;;10.57;6.07;;;;;;;15.07;60.48;98704.97;512889;1088;103122;-43
2021/06/10 23:16:07;;;;;;;12.27;5.90;;;;;;;15.13;60.79;98695.94;512671;1088;103507;-41
2021/06/10 23:26:14;;;;;;;8.07;6.23;;;;;;;15.17;61.10;98701.58;512831;1088;103064;-42
2021/06/10 23:36:22;;;;;;;11.47;6.73;;;;;;;14.95;61.18;98702.50;512693;1089;103519;-44
2021/06/10 23:46:30;;;;;;;8.63;6.57;;;;;;;14.79;61.44;98703.45;512869;1089;103100;-43
2021/06/10 23:56:37;;;;;;;7.53;5.33;;;;;;;14.72;61.87;98693.02;512785;1089;103103;-43
